createdAt,value
2022-08-05T00:00:55.996Z,17.72
2022-08-05T00:02:21.321Z,17.71
2022-08-05T00:03:24.623Z,17.70
2022-08-05T00:04:32.235Z,17.68
2022-08-05T00:06:05.553Z,17.69
2022-08-05T00:07:02.700Z,17.64
2022-08-05T00:08:34.282Z,17.60
2022-08-05T00:09:38.540Z,17.59
2022-08-05T00:10:47.171Z,17.60
2022-08-05T00:11:55.663Z,17.61
2022-08-05T00:13:09.480Z,17.61
2022-08-05T00:14:27.809Z,17.61
2022-08-05T00:15:58.226Z,17.61
2022-08-05T00:17:05.923Z,17.61
2022-08-05T00:18:22.898Z,17.60
2022-08-05T00:19:33.831Z,17.59
2022-08-05T00:20:49.037Z,17.62
2022-08-05T00:21:52.307Z,17.61
2022-08-05T00:22:58.500Z,17.62
2022-08-05T00:24:10.381Z,17.61
2022-08-05T00:25:14.257Z,17.62
2022-08-05T00:26:20.187Z,17.62
2022-08-05T00:27:35.955Z,17.62
2022-08-05T00:28:39.893Z,17.62
2022-08-05T00:29:43.010Z,17.61
2022-08-05T00:30:46.162Z,17.60
2022-08-05T00:32:12.519Z,17.61
2022-08-05T00:34:54.016Z,17.60
2022-08-05T00:35:03.640Z,17.58
2022-08-05T00:36:16.273Z,17.56
2022-08-05T00:37:51.267Z,17.53
2022-08-05T00:38:52.683Z,17.50
2022-08-05T00:39:58.340Z,17.50
2022-08-05T00:41:02.388Z,17.50
2022-08-05T00:42:08.759Z,17.45
2022-08-05T00:43:15.341Z,17.50
2022-08-05T00:44:18.644Z,17.51
2022-08-05T00:45:39.152Z,17.51
2022-08-05T00:46:47.006Z,17.51
2022-08-05T00:48:05.610Z,17.50
2022-08-05T00:49:09.645Z,17.49
2022-08-05T00:50:21.070Z,17.47
2022-08-05T00:51:50.873Z,17.44
2022-08-05T00:52:47.540Z,17.40
2022-08-05T00:54:02.472Z,17.39
2022-08-05T00:55:06.771Z,17.39
2022-08-05T00:56:09.990Z,17.38
2022-08-05T00:57:15.697Z,17.39
2022-08-05T00:58:27.235Z,17.38
2022-08-05T00:59:34.737Z,17.38
2022-08-05T01:00:50.349Z,17.39
2022-08-05T01:01:53.630Z,17.39
2022-08-05T01:02:59.935Z,17.40
2022-08-05T01:04:04.042Z,17.41
2022-08-05T01:05:17.183Z,17.42
2022-08-05T01:06:20.385Z,17.40
2022-08-05T01:07:35.477Z,17.41
2022-08-05T01:08:42.758Z,17.39
2022-08-05T01:09:55.656Z,17.37
2022-08-05T01:11:11.485Z,17.35
2022-08-05T01:12:20.627Z,17.30
2022-08-05T01:13:58.585Z,17.22
2022-08-05T01:15:05.750Z,17.28
2022-08-05T01:16:44.608Z,17.27
2022-08-05T01:18:05.661Z,17.25
2022-08-05T01:19:36.671Z,17.22
2022-08-05T01:20:46.878Z,17.17
2022-08-05T01:22:15.333Z,17.16
2022-08-05T01:23:34.859Z,17.11
2022-08-05T01:24:47.303Z,17.07
2022-08-05T01:26:14.215Z,17.07
2022-08-05T01:27:50.554Z,17.05
2022-08-05T01:29:04.976Z,17.04
2022-08-05T01:30:12.402Z,17.05
2022-08-05T01:31:45.009Z,17.05
2022-08-05T01:32:51.336Z,17.05
2022-08-05T01:33:59.712Z,17.05
2022-08-05T01:35:50.988Z,17.07
2022-08-05T01:36:47.980Z,17.05
2022-08-05T01:37:55.258Z,17.03
2022-08-05T01:39:01.337Z,17.02
2022-08-05T01:40:06.290Z,17.00
2022-08-05T01:41:13.989Z,17.01
2022-08-05T01:42:20.848Z,17.01
2022-08-05T01:43:25.843Z,17.01
2022-08-05T01:44:34.218Z,17.02
2022-08-05T01:45:43.150Z,17.00
2022-08-05T01:46:47.553Z,17.02
2022-08-05T01:47:54.482Z,17.03
2022-08-05T01:49:01.133Z,17.03
2022-08-05T01:50:30.476Z,17.01
2022-08-05T01:51:36.128Z,16.99
2022-08-05T01:52:43.289Z,16.96
2022-08-05T01:53:57.048Z,16.94
2022-08-05T01:55:07.215Z,16.91
2022-08-05T01:58:11.440Z,16.89
2022-08-05T01:58:12.155Z,16.88
2022-08-05T01:59:16.117Z,16.86
2022-08-05T02:00:20.004Z,16.84
2022-08-05T02:01:39.999Z,16.84
2022-08-05T02:02:53.677Z,16.84
2022-08-05T02:04:00.268Z,16.83
2022-08-05T02:05:11.639Z,16.80
2022-08-05T02:06:33.981Z,16.82
2022-08-05T02:07:40.093Z,16.80
2022-08-05T02:08:55.024Z,16.78
2022-08-05T02:10:03.612Z,16.78
2022-08-05T02:11:11.826Z,16.77
2022-08-05T02:12:40.768Z,16.75
2022-08-05T02:13:53.280Z,16.76
2022-08-05T02:15:33.289Z,16.74
2022-08-05T02:16:52.884Z,16.70
2022-08-05T02:18:32.145Z,16.69
2022-08-05T02:19:28.310Z,16.67
2022-08-05T02:20:40.828Z,16.67
2022-08-05T02:21:53.386Z,16.68
2022-08-05T02:23:01.647Z,16.68
2022-08-05T02:24:09.388Z,16.67
2022-08-05T02:25:19.743Z,16.66
2022-08-05T02:26:54.579Z,16.67
2022-08-05T02:28:01.201Z,16.65
2022-08-05T02:29:06.442Z,16.64
2022-08-05T02:30:28.893Z,16.64
2022-08-05T02:31:37.203Z,16.64
2022-08-05T02:32:41.962Z,16.64
2022-08-05T02:33:57.314Z,16.64
2022-08-05T02:35:13.294Z,16.64
2022-08-05T02:36:20.939Z,16.64
2022-08-05T02:37:32.842Z,16.64
2022-08-05T02:38:38.801Z,16.65
2022-08-05T02:39:42.749Z,16.66
2022-08-05T02:40:56.329Z,16.66
2022-08-05T02:42:02.151Z,16.66
2022-08-05T02:43:07.426Z,16.64
2022-08-05T02:44:13.571Z,16.66
2022-08-05T02:45:18.912Z,16.65
2022-08-05T02:46:32.107Z,16.66
2022-08-05T02:48:06.428Z,16.65
2022-08-05T02:49:00.569Z,16.62
2022-08-05T02:50:05.474Z,16.63
2022-08-05T02:51:12.362Z,16.63
2022-08-05T02:52:29.741Z,16.62
2022-08-05T02:53:39.549Z,16.61
2022-08-05T02:54:52.138Z,16.59
2022-08-05T02:56:02.342Z,16.58
2022-08-05T02:58:19.714Z,16.57
2022-08-05T02:58:37.716Z,16.60
2022-08-05T02:59:51.978Z,16.59
2022-08-05T03:01:11.693Z,16.59
2022-08-05T03:02:21.272Z,16.59
2022-08-05T03:03:26.062Z,16.59
2022-08-05T03:04:30.177Z,16.59
2022-08-05T03:06:54.061Z,16.57
2022-08-05T03:06:59.481Z,16.54
2022-08-05T03:08:08.522Z,16.51
2022-08-05T03:09:15.822Z,16.50
2022-08-05T03:10:24.509Z,16.49
2022-08-05T03:11:57.429Z,16.50
2022-08-05T03:12:54.411Z,16.49
2022-08-05T03:14:03.153Z,16.47
2022-08-05T03:15:12.308Z,16.48
2022-08-05T03:16:16.321Z,16.49
2022-08-05T03:17:23.233Z,16.49
2022-08-05T03:18:29.961Z,16.47
2022-08-05T03:19:36.171Z,16.48
2022-08-05T03:20:48.757Z,16.44
2022-08-05T03:21:52.473Z,16.42
2022-08-05T03:22:57.635Z,16.41
2022-08-05T03:24:29.790Z,16.41
2022-08-05T03:26:03.574Z,16.39
2022-08-05T03:27:10.328Z,16.39
2022-08-05T03:28:18.857Z,16.40
2022-08-05T03:29:23.303Z,16.38
2022-08-05T03:30:33.367Z,16.35
2022-08-05T03:31:56.121Z,16.32
2022-08-05T03:33:02.111Z,16.27
2022-08-05T03:34:06.205Z,16.23
2022-08-05T03:35:11.639Z,16.23
2022-08-05T03:36:30.374Z,16.22
2022-08-05T03:37:45.847Z,16.17
2022-08-05T03:38:52.482Z,16.12
2022-08-05T03:40:06.446Z,16.14
2022-08-05T03:41:23.604Z,16.15
2022-08-05T03:42:29.090Z,16.16
2022-08-05T03:44:09.334Z,16.16
2022-08-05T03:45:22.491Z,16.15
2022-08-05T03:46:34.566Z,16.14
2022-08-05T03:47:41.328Z,16.15
2022-08-05T03:48:46.682Z,16.16
2022-08-05T03:49:52.011Z,16.17
2022-08-05T03:52:50.258Z,16.19
2022-08-05T03:54:59.099Z,16.18
2022-08-05T03:56:04.637Z,16.18
2022-08-05T03:56:06.228Z,16.18
2022-08-05T03:57:34.482Z,16.16
2022-08-05T03:58:38.215Z,16.15
2022-08-05T03:59:55.593Z,16.16
2022-08-05T04:01:02.317Z,16.17
2022-08-05T04:02:12.186Z,16.19
2022-08-05T04:03:28.554Z,16.21
2022-08-05T04:04:33.234Z,16.22
2022-08-05T04:05:38.589Z,16.23
2022-08-05T04:06:47.853Z,16.24
2022-08-05T04:07:58.634Z,16.23
2022-08-05T04:09:06.456Z,16.19
2022-08-05T04:10:10.587Z,16.20
2022-08-05T04:11:20.763Z,16.19
2022-08-05T04:12:26.456Z,16.17
2022-08-05T04:13:50.354Z,16.17
2022-08-05T04:14:54.699Z,16.17
2022-08-05T04:16:04.825Z,16.13
2022-08-05T04:17:09.322Z,16.18
2022-08-05T04:18:20.539Z,16.20
2022-08-05T04:19:26.469Z,16.21
2022-08-05T04:20:32.307Z,16.23
2022-08-05T04:22:08.278Z,16.24
2022-08-05T04:23:00.256Z,16.25
2022-08-05T04:24:08.823Z,16.25
2022-08-05T04:25:38.378Z,16.25
2022-08-05T04:26:45.056Z,16.25
2022-08-05T04:27:57.193Z,16.26
2022-08-05T04:29:07.062Z,16.27
2022-08-05T04:30:11.457Z,16.26
2022-08-05T04:31:17.066Z,16.26
2022-08-05T04:32:31.165Z,16.27
2022-08-05T04:34:19.302Z,16.26
2022-08-05T04:34:59.832Z,16.25
2022-08-05T04:36:11.373Z,16.26
2022-08-05T04:37:20.060Z,16.25
2022-08-05T04:38:39.498Z,16.26
2022-08-05T04:39:43.240Z,16.27
2022-08-05T04:40:47.884Z,16.28
2022-08-05T04:41:54.443Z,16.29
2022-08-05T04:42:58.674Z,16.30
2022-08-05T04:44:02.123Z,16.31
2022-08-05T04:45:14.156Z,16.33
2022-08-05T04:46:28.305Z,16.25
2022-08-05T04:47:38.605Z,16.28
2022-08-05T04:48:46.206Z,16.34
2022-08-05T04:50:02.895Z,16.36
2022-08-05T04:51:14.905Z,16.39
2022-08-05T04:52:18.721Z,16.41
2022-08-05T04:53:22.394Z,16.45
2022-08-05T04:54:27.442Z,16.47
2022-08-05T04:56:11.894Z,16.49
2022-08-05T04:56:58.783Z,16.50
2022-08-05T04:58:05.938Z,16.53
2022-08-05T04:59:22.906Z,16.57
2022-08-05T05:00:50.647Z,16.59
2022-08-05T05:02:35.083Z,16.63
2022-08-05T05:03:20.323Z,16.66
2022-08-05T05:04:23.601Z,16.70
2022-08-05T05:05:29.355Z,16.75
2022-08-05T05:06:40.279Z,16.78
2022-08-05T05:07:56.146Z,16.83
2022-08-05T05:09:05.502Z,16.87
2022-08-05T05:10:09.069Z,16.90
2022-08-05T05:11:15.253Z,16.94
2022-08-05T05:12:19.206Z,16.96
2022-08-05T05:13:22.728Z,16.97
2022-08-05T05:14:31.519Z,17.03
2022-08-05T05:15:57.268Z,17.07
2022-08-05T05:16:58.657Z,17.10
2022-08-05T05:18:02.071Z,17.13
2022-08-05T05:19:18.786Z,17.16
2022-08-05T05:20:22.932Z,17.19
2022-08-05T05:21:33.086Z,17.23
2022-08-05T05:22:40.939Z,17.27
2022-08-05T05:24:03.820Z,17.31
2022-08-05T05:25:17.060Z,17.34
2022-08-05T05:26:28.619Z,17.37
2022-08-05T05:27:44.309Z,17.41
2022-08-05T05:28:48.502Z,17.45
2022-08-05T05:30:04.938Z,17.50
2022-08-05T05:31:09.025Z,17.53
2022-08-05T05:32:15.531Z,17.57
2022-08-05T05:33:23.111Z,17.62
2022-08-05T05:34:27.334Z,17.66
2022-08-05T05:35:38.014Z,17.69
2022-08-05T05:36:43.010Z,17.74
2022-08-05T05:37:59.838Z,17.79
2022-08-05T05:39:04.931Z,17.84
2022-08-05T05:40:18.686Z,17.89
2022-08-05T05:41:25.232Z,17.93
2022-08-05T05:42:47.159Z,17.98
2022-08-05T05:43:57.215Z,18.04
2022-08-05T05:45:03.615Z,18.10
2022-08-05T05:46:13.746Z,18.14
2022-08-05T05:47:21.638Z,18.20
2022-08-05T05:48:27.898Z,18.24
2022-08-05T05:49:31.061Z,18.29
2022-08-05T05:50:43.997Z,18.34
2022-08-05T05:51:50.650Z,18.39
2022-08-05T05:52:54.575Z,18.45
2022-08-05T05:54:00.060Z,18.49
2022-08-05T05:55:13.530Z,18.53
2022-08-05T05:56:31.365Z,18.58
2022-08-05T05:57:52.182Z,18.62
2022-08-05T05:58:58.611Z,18.68
2022-08-05T06:00:15.872Z,18.71
2022-08-05T06:01:20.098Z,18.76
2022-08-05T06:02:37.388Z,18.80
2022-08-05T06:04:01.906Z,18.85
2022-08-05T06:05:16.504Z,18.88
2022-08-05T06:06:20.243Z,18.95
2022-08-05T06:07:42.139Z,19.01
2022-08-05T06:08:49.233Z,19.06
2022-08-05T06:10:00.854Z,19.13
2022-08-05T06:11:07.993Z,19.19
2022-08-05T06:12:12.127Z,19.23
2022-08-05T06:13:15.441Z,19.29
2022-08-05T06:14:18.618Z,19.34
2022-08-05T06:15:23.946Z,19.40
2022-08-05T06:16:32.592Z,19.43
2022-08-05T06:17:53.010Z,19.49
2022-08-05T06:19:00.248Z,19.53
2022-08-05T06:20:06.226Z,19.58
2022-08-05T06:21:24.842Z,19.64
2022-08-05T06:22:40.601Z,19.70
2022-08-05T06:23:45.512Z,19.77
2022-08-05T06:24:53.401Z,19.84
2022-08-05T06:26:12.181Z,19.89
2022-08-05T06:28:12.821Z,19.95
2022-08-05T06:28:43.272Z,20.03
2022-08-05T06:30:03.967Z,20.10
2022-08-05T06:31:18.084Z,20.17
2022-08-05T06:32:28.895Z,20.23
2022-08-05T06:34:05.795Z,20.30
2022-08-05T06:34:57.927Z,20.49
2022-08-05T06:36:03.789Z,20.77
2022-08-05T06:37:11.682Z,21.15
2022-08-05T06:38:15.622Z,21.50
2022-08-05T06:39:19.331Z,21.82
2022-08-05T06:40:32.469Z,22.11
2022-08-05T06:41:36.652Z,22.44
2022-08-05T06:42:44.651Z,22.72
2022-08-05T06:43:59.013Z,22.94
2022-08-05T06:45:08.311Z,23.21
2022-08-05T06:46:12.136Z,23.42
2022-08-05T06:48:11.918Z,23.69
2022-08-05T06:48:55.634Z,24.00
2022-08-05T06:50:05.298Z,24.32
2022-08-05T06:51:09.548Z,24.56
2022-08-05T06:52:36.600Z,24.76
2022-08-05T06:53:39.261Z,25.05
2022-08-05T06:54:42.907Z,25.27
2022-08-05T06:55:46.070Z,25.47
2022-08-05T06:56:54.701Z,25.66
2022-08-05T06:58:20.032Z,25.88
2022-08-05T06:59:21.751Z,26.15
2022-08-05T07:00:25.622Z,26.32
2022-08-05T07:01:32.195Z,26.49
2022-08-05T07:02:42.995Z,26.65
2022-08-05T07:03:46.855Z,26.80
2022-08-05T07:04:54.405Z,26.94
2022-08-05T07:06:06.033Z,27.06
2022-08-05T07:07:24.161Z,27.14
2022-08-05T07:08:47.743Z,27.24
2022-08-05T07:09:58.150Z,27.34
2022-08-05T07:11:01.997Z,27.42
2022-08-05T07:12:08.154Z,27.53
2022-08-05T07:13:56.703Z,27.66
2022-08-05T07:15:14.521Z,27.88
2022-08-05T07:18:00.691Z,28.08
2022-08-05T07:18:19.512Z,28.25
2022-08-05T07:20:53.804Z,28.47
2022-08-05T07:21:59.350Z,28.57
2022-08-05T07:23:04.683Z,28.65
2022-08-05T07:24:11.222Z,28.72
2022-08-05T07:25:54.416Z,28.77
2022-08-05T07:26:38.143Z,28.84
2022-08-05T07:27:58.772Z,28.87
2022-08-05T07:29:05.555Z,28.95
2022-08-05T07:30:30.190Z,29.02
2022-08-05T07:31:53.991Z,29.13
2022-08-05T07:32:58.812Z,29.26
2022-08-05T07:34:03.176Z,29.34
2022-08-05T07:35:55.995Z,29.45
2022-08-05T07:36:41.881Z,29.60
2022-08-05T07:37:47.862Z,29.64
2022-08-05T07:38:54.926Z,29.69
2022-08-05T07:40:27.148Z,29.77
2022-08-05T07:42:07.970Z,29.79
2022-08-05T07:42:49.132Z,29.87
2022-08-05T07:43:55.095Z,29.90
2022-08-05T07:45:00.438Z,29.98
2022-08-05T07:46:03.868Z,30.04
2022-08-05T07:47:10.160Z,30.09
2022-08-05T07:48:16.604Z,30.16
2022-08-05T07:49:43.584Z,30.20
2022-08-05T07:50:59.712Z,30.16
2022-08-05T07:52:03.157Z,30.19
2022-08-05T07:53:06.868Z,30.25
2022-08-05T07:54:11.538Z,30.32
2022-08-05T07:55:44.226Z,30.39
2022-08-05T07:57:14.552Z,30.45
2022-08-05T07:58:03.136Z,30.54
2022-08-05T07:59:08.687Z,30.59
2022-08-05T08:00:14.792Z,30.67
2022-08-05T08:01:18.585Z,30.80
2022-08-05T08:02:30.967Z,30.90
2022-08-05T08:03:51.623Z,31.07
2022-08-05T08:04:56.008Z,31.16
2022-08-05T08:06:02.266Z,31.20
2022-08-05T08:07:07.074Z,31.21
2022-08-05T08:08:12.127Z,31.24
2022-08-05T08:09:15.691Z,31.22
2022-08-05T08:10:20.622Z,31.26
2022-08-05T08:11:27.630Z,31.32
2022-08-05T08:12:49.823Z,31.43
2022-08-05T08:14:00.615Z,31.49
2022-08-05T08:15:15.757Z,31.47
2022-08-05T08:16:35.296Z,31.51
2022-08-05T08:17:50.638Z,31.60
2022-08-05T08:18:56.435Z,31.69
2022-08-05T08:20:43.383Z,31.89
2022-08-05T08:21:25.612Z,31.88
2022-08-05T08:22:30.031Z,31.88
2022-08-05T08:24:01.768Z,32.02
2022-08-05T08:25:02.710Z,32.08
2022-08-05T08:26:07.157Z,32.08
2022-08-05T08:27:10.929Z,32.21
2022-08-05T08:28:36.793Z,32.20
2022-08-05T08:30:05.256Z,32.28
2022-08-05T08:31:04.377Z,32.42
2022-08-05T08:32:07.752Z,32.53
2022-08-05T08:33:14.446Z,32.66
2022-08-05T08:34:30.430Z,32.64
2022-08-05T08:35:40.935Z,32.60
2022-08-05T08:36:48.913Z,32.63
2022-08-05T08:37:56.421Z,32.67
2022-08-05T08:38:59.838Z,32.72
2022-08-05T08:40:05.558Z,32.83
2022-08-05T08:41:10.907Z,33.01
2022-08-05T08:42:33.677Z,33.14
2022-08-05T08:45:16.625Z,33.26
2022-08-05T08:45:19.143Z,33.40
2022-08-05T08:46:30.639Z,33.56
2022-08-05T08:48:05.917Z,33.69
2022-08-05T08:50:05.720Z,33.65
2022-08-05T08:50:32.978Z,33.71
2022-08-05T08:52:03.327Z,33.77
2022-08-05T08:53:15.403Z,33.77
2022-08-05T08:54:18.636Z,33.82
2022-08-05T08:56:01.846Z,33.92
2022-08-05T08:56:47.675Z,34.05
2022-08-05T08:57:57.933Z,34.09
2022-08-05T08:59:03.173Z,34.05
2022-08-05T09:00:15.826Z,34.20
2022-08-05T09:01:22.705Z,34.24
2022-08-05T09:02:27.144Z,34.21
2022-08-05T09:03:45.012Z,34.21
2022-08-05T09:05:15.911Z,34.33
2022-08-05T09:06:18.620Z,34.44
2022-08-05T09:07:28.894Z,34.58
2022-08-05T09:08:32.837Z,34.62
2022-08-05T09:09:38.155Z,34.66
2022-08-05T09:10:46.903Z,34.72
2022-08-05T09:11:51.276Z,34.74
2022-08-05T09:13:04.851Z,34.78
2022-08-05T09:14:54.131Z,34.80
2022-08-05T09:15:32.401Z,34.77
2022-08-05T09:16:48.634Z,34.80
2022-08-05T09:17:52.974Z,34.88
2022-08-05T09:18:59.225Z,35.01
2022-08-05T09:20:05.605Z,35.13
2022-08-05T09:21:11.718Z,35.29
2022-08-05T09:22:31.038Z,35.20
2022-08-05T09:23:37.521Z,35.17
2022-08-05T09:25:23.809Z,35.32
2022-08-05T09:26:32.429Z,35.37
2022-08-05T09:28:03.869Z,35.35
2022-08-05T09:29:05.024Z,35.43
2022-08-05T09:30:08.680Z,35.47
2022-08-05T09:32:39.259Z,35.50
2022-08-05T09:32:46.939Z,35.50
2022-08-05T09:33:55.067Z,35.50
2022-08-05T09:35:02.561Z,35.61
2022-08-05T09:36:16.285Z,35.78
2022-08-05T09:38:12.580Z,35.94
2022-08-05T09:39:04.011Z,35.88
2022-08-05T09:40:36.395Z,35.89
2022-08-05T09:42:00.388Z,35.95
2022-08-05T09:43:08.455Z,35.93
2022-08-05T09:44:11.817Z,36.03
2022-08-05T09:46:05.104Z,36.12
2022-08-05T09:46:50.163Z,36.15
2022-08-05T09:47:56.695Z,36.10
2022-08-05T09:49:06.771Z,36.01
2022-08-05T09:50:11.549Z,35.96
2022-08-05T09:51:15.813Z,35.75
2022-08-05T09:52:33.752Z,35.65
2022-08-05T09:53:53.669Z,35.45
2022-08-05T09:55:55.559Z,35.17
2022-08-05T09:56:37.800Z,35.00
2022-08-05T09:57:43.963Z,34.88
2022-08-05T09:59:17.941Z,34.91
2022-08-05T10:00:26.518Z,35.16
2022-08-05T10:01:33.696Z,35.26
2022-08-05T10:02:43.497Z,35.43
2022-08-05T10:04:28.654Z,35.59
2022-08-05T10:05:33.581Z,35.85
2022-08-05T10:06:37.333Z,35.94
2022-08-05T10:08:36.706Z,35.95
2022-08-05T10:09:27.361Z,36.00
2022-08-05T10:10:46.106Z,36.00
2022-08-05T10:11:51.443Z,36.01
2022-08-05T10:13:00.699Z,36.05
2022-08-05T10:14:30.223Z,36.08
2022-08-05T10:15:42.984Z,36.20
2022-08-05T10:16:52.381Z,36.21
2022-08-05T10:18:09.115Z,36.25
2022-08-05T10:19:13.964Z,36.37
2022-08-05T10:20:20.553Z,36.48
2022-08-05T10:21:25.077Z,36.46
2022-08-05T10:22:29.672Z,36.45
2022-08-05T10:23:59.253Z,36.53
2022-08-05T10:25:01.979Z,36.64
2022-08-05T10:26:08.131Z,36.61
2022-08-05T10:27:18.928Z,36.69
2022-08-05T10:28:30.783Z,36.64
2022-08-05T10:30:41.063Z,36.64
2022-08-05T10:32:49.411Z,36.68
2022-08-05T10:32:52.647Z,36.72
2022-08-05T10:33:52.280Z,36.78
2022-08-05T10:35:00.826Z,36.87
2022-08-05T10:36:05.292Z,37.04
2022-08-05T10:37:08.832Z,37.26
2022-08-05T10:38:13.608Z,37.27
2022-08-05T10:39:24.161Z,37.38
2022-08-05T10:40:43.530Z,37.45
2022-08-05T10:42:08.235Z,37.51
2022-08-05T10:43:30.823Z,37.58
2022-08-05T10:44:43.582Z,37.64
2022-08-05T10:46:06.787Z,37.74
2022-08-05T10:47:26.817Z,37.87
2022-08-05T10:48:52.395Z,37.99
2022-08-05T10:50:31.961Z,37.98
2022-08-05T10:51:59.900Z,38.14
2022-08-05T10:53:04.189Z,38.12
2022-08-05T10:54:28.530Z,38.03
2022-08-05T10:56:03.528Z,37.82
2022-08-05T10:56:57.303Z,37.84
2022-08-05T10:58:08.849Z,37.84
2022-08-05T11:00:03.451Z,37.80
2022-08-05T11:00:47.435Z,37.81
2022-08-05T11:02:05.960Z,37.68
2022-08-05T11:03:25.259Z,37.75
2022-08-05T11:04:30.756Z,37.72
2022-08-05T11:05:35.160Z,37.58
2022-08-05T11:06:58.248Z,37.56
2022-08-05T11:08:27.536Z,37.57
2022-08-05T11:09:51.842Z,37.61
2022-08-05T11:11:44.720Z,37.31
2022-08-05T11:12:57.957Z,37.12
2022-08-05T11:14:02.792Z,36.98
2022-08-05T11:15:19.696Z,36.97
2022-08-05T11:16:34.013Z,36.93
2022-08-05T11:18:00.322Z,36.85
2022-08-05T11:20:16.554Z,36.84
2022-08-05T11:20:54.785Z,36.83
2022-08-05T11:22:37.277Z,36.94
2022-08-05T11:24:04.140Z,36.87
2022-08-05T11:26:05.015Z,36.81
2022-08-05T11:27:51.347Z,36.63
2022-08-05T11:28:54.632Z,36.59
2022-08-05T11:30:04.065Z,36.82
2022-08-05T11:31:07.309Z,37.09
2022-08-05T11:32:30.975Z,37.34
2022-08-05T11:33:46.471Z,37.60
2022-08-05T11:34:54.377Z,37.88
2022-08-05T11:36:07.565Z,38.01
2022-08-05T11:38:37.400Z,38.13
2022-08-05T11:38:57.712Z,38.21
2022-08-05T11:40:04.331Z,38.36
2022-08-05T11:41:57.926Z,38.65
2022-08-05T11:42:49.607Z,38.92
2022-08-05T11:44:05.474Z,38.97
2022-08-05T11:45:26.803Z,38.92
2022-08-05T11:46:58.569Z,38.88
2022-08-05T11:48:09.682Z,39.03
2022-08-05T11:49:16.959Z,39.23
2022-08-05T11:50:20.147Z,39.36
2022-08-05T11:51:44.274Z,39.46
2022-08-05T11:52:54.395Z,39.60
2022-08-05T11:54:02.139Z,39.52
2022-08-05T11:55:07.582Z,39.57
2022-08-05T11:56:11.410Z,39.46
2022-08-05T11:57:25.562Z,39.26
2022-08-05T11:58:40.061Z,39.00
2022-08-05T11:59:50.169Z,38.71
2022-08-05T12:01:02.935Z,38.42
2022-08-05T12:02:23.926Z,38.23
2022-08-05T12:03:56.352Z,38.02
2022-08-05T12:05:07.682Z,37.81
2022-08-05T12:06:26.453Z,37.53
2022-08-05T12:08:08.029Z,37.25
2022-08-05T12:08:59.807Z,36.95
2022-08-05T12:10:09.152Z,36.79
2022-08-05T12:11:40.452Z,36.69
2022-08-05T12:12:59.464Z,36.39
2022-08-05T12:14:06.117Z,36.28
2022-08-05T12:15:20.932Z,36.39
2022-08-05T12:16:45.164Z,36.62
2022-08-05T12:18:03.093Z,36.88
2022-08-05T12:19:10.211Z,37.15
2022-08-05T12:20:38.985Z,37.25
2022-08-05T12:21:45.151Z,37.50
2022-08-05T12:22:49.562Z,37.77
2022-08-05T12:24:06.994Z,38.01
2022-08-05T12:25:10.816Z,38.06
2022-08-05T12:26:17.944Z,38.21
2022-08-05T12:27:32.674Z,38.40
2022-08-05T12:28:42.732Z,38.59
2022-08-05T12:30:15.430Z,38.79
2022-08-05T12:31:33.022Z,39.05
2022-08-05T12:32:53.989Z,39.12
2022-08-05T12:34:00.980Z,38.88
2022-08-05T12:35:09.399Z,38.48
2022-08-05T12:36:13.298Z,38.44
2022-08-05T12:37:21.548Z,38.42
2022-08-05T12:38:31.568Z,38.48
2022-08-05T12:39:38.522Z,38.41
2022-08-05T12:40:43.499Z,38.37
2022-08-05T12:41:47.547Z,38.34
2022-08-05T12:42:56.155Z,38.40
2022-08-05T12:44:06.392Z,38.48
2022-08-05T12:45:49.543Z,38.71
2022-08-05T12:46:54.333Z,38.91
2022-08-05T12:48:01.544Z,39.08
2022-08-05T12:49:25.599Z,39.06
2022-08-05T12:50:30.827Z,38.96
2022-08-05T12:52:13.900Z,38.91
2022-08-05T12:53:17.321Z,38.70
2022-08-05T12:54:26.562Z,38.75
2022-08-05T12:55:35.268Z,38.69
2022-08-05T12:56:42.449Z,38.70
2022-08-05T12:58:48.312Z,38.78
2022-08-05T12:59:27.522Z,38.95
2022-08-05T13:02:00.691Z,39.06
2022-08-05T13:02:13.041Z,39.07
2022-08-05T13:03:16.437Z,38.86
2022-08-05T13:04:22.947Z,38.79
2022-08-05T13:05:37.339Z,38.89
2022-08-05T13:06:50.770Z,38.90
2022-08-05T13:08:00.229Z,38.93
2022-08-05T13:09:08.733Z,39.05
2022-08-05T13:10:19.869Z,39.24
2022-08-05T13:12:02.683Z,39.17
2022-08-05T13:12:58.184Z,39.14
2022-08-05T13:14:05.756Z,39.23
2022-08-05T13:15:16.566Z,39.20
2022-08-05T13:16:29.867Z,39.10
2022-08-05T13:17:41.826Z,39.00
2022-08-05T13:18:57.760Z,39.03
2022-08-05T13:20:02.217Z,39.05
2022-08-05T13:21:15.236Z,39.10
2022-08-05T13:22:27.960Z,39.18
2022-08-05T13:23:32.667Z,39.24
2022-08-05T13:24:57.370Z,39.33
2022-08-05T13:26:02.124Z,39.49
2022-08-05T13:27:11.146Z,39.54
2022-08-05T13:28:16.997Z,39.56
2022-08-05T13:29:37.335Z,39.57
2022-08-05T13:30:41.909Z,39.66
2022-08-05T13:32:03.781Z,39.60
2022-08-05T13:33:08.028Z,39.57
2022-08-05T13:34:24.831Z,39.67
2022-08-05T13:35:42.536Z,39.87
2022-08-05T13:36:46.697Z,40.00
2022-08-05T13:37:55.749Z,40.15
2022-08-05T13:38:59.199Z,40.28
2022-08-05T13:40:13.638Z,40.31
2022-08-05T13:41:18.303Z,40.26
2022-08-05T13:42:23.603Z,40.32
2022-08-05T13:43:45.858Z,40.37
2022-08-05T13:44:56.686Z,40.32
2022-08-05T13:46:05.255Z,40.50
2022-08-05T13:47:09.310Z,40.63
2022-08-05T13:48:58.484Z,40.72
2022-08-05T13:49:45.094Z,40.80
2022-08-05T13:50:49.646Z,40.88
2022-08-05T13:51:52.840Z,41.00
2022-08-05T13:52:57.261Z,41.09
2022-08-05T13:54:01.801Z,41.15
2022-08-05T13:55:07.634Z,41.29
2022-08-05T13:56:18.481Z,41.43
2022-08-05T13:57:23.055Z,41.48
2022-08-05T13:58:30.772Z,41.42
2022-08-05T13:59:37.645Z,41.46
2022-08-05T14:01:00.927Z,41.47
2022-08-05T14:02:07.429Z,41.52
2022-08-05T14:03:23.333Z,41.46
2022-08-05T14:04:49.672Z,41.45
2022-08-05T14:06:26.489Z,41.33
2022-08-05T14:08:00.139Z,41.19
2022-08-05T14:08:50.925Z,40.99
2022-08-05T14:09:55.943Z,40.93
2022-08-05T14:10:59.774Z,40.88
2022-08-05T14:12:17.689Z,40.75
2022-08-05T14:13:23.554Z,40.67
2022-08-05T14:14:32.304Z,40.69
2022-08-05T14:16:05.143Z,40.75
2022-08-05T14:17:02.637Z,40.86
2022-08-05T14:18:14.970Z,40.97
2022-08-05T14:19:21.131Z,41.09
2022-08-05T14:20:27.179Z,41.17
2022-08-05T14:22:08.903Z,41.27
2022-08-05T14:22:54.538Z,41.32
2022-08-05T14:23:57.611Z,41.41
2022-08-05T14:25:06.250Z,41.54
2022-08-05T14:26:38.352Z,41.63
2022-08-05T14:27:47.570Z,41.51
2022-08-05T14:28:52.243Z,41.39
2022-08-05T14:29:56.335Z,41.33
2022-08-05T14:31:01.365Z,41.33
2022-08-05T14:32:15.943Z,41.33
2022-08-05T14:33:56.469Z,41.24
2022-08-05T14:34:52.177Z,41.24
2022-08-05T14:35:55.817Z,41.27
2022-08-05T14:36:59.540Z,41.20
2022-08-05T14:38:02.709Z,41.22
2022-08-05T14:39:07.774Z,41.17
2022-08-05T14:40:16.586Z,41.15
2022-08-05T14:41:21.055Z,41.14
2022-08-05T14:42:24.994Z,41.12
2022-08-05T14:44:00.258Z,41.17
2022-08-05T14:44:52.006Z,41.25
2022-08-05T14:45:55.140Z,41.11
2022-08-05T14:46:58.529Z,41.09
2022-08-05T14:48:05.309Z,41.08
2022-08-05T14:49:13.832Z,41.11
2022-08-05T14:50:19.072Z,41.15
2022-08-05T14:51:22.551Z,41.04
2022-08-05T14:52:50.479Z,40.81
2022-08-05T14:54:26.979Z,40.50
2022-08-05T14:55:24.998Z,40.30
2022-08-05T14:56:28.262Z,40.25
2022-08-05T14:57:33.929Z,40.35
2022-08-05T14:58:55.509Z,40.30
2022-08-05T14:59:58.669Z,40.17
2022-08-05T15:01:02.093Z,40.04
2022-08-05T15:02:15.176Z,39.86
2022-08-05T15:03:22.966Z,39.53
2022-08-05T15:04:27.367Z,39.38
2022-08-05T15:06:06.825Z,39.30
2022-08-05T15:06:56.626Z,39.31
2022-08-05T15:08:10.690Z,39.38
2022-08-05T15:09:52.404Z,39.53
2022-08-05T15:10:46.205Z,39.67
2022-08-05T15:11:51.771Z,39.80
2022-08-05T15:13:01.367Z,39.92
2022-08-05T15:14:07.788Z,40.01
2022-08-05T15:15:15.332Z,40.08
2022-08-05T15:16:21.037Z,40.20
2022-08-05T15:17:46.815Z,40.12
2022-08-05T15:18:50.684Z,39.96
2022-08-05T15:19:55.986Z,40.04
2022-08-05T15:21:07.572Z,39.87
2022-08-05T15:22:11.264Z,39.65
2022-08-05T15:23:14.586Z,39.67
2022-08-05T15:24:17.660Z,39.80
2022-08-05T15:25:52.772Z,39.69
2022-08-05T15:26:47.508Z,39.73
2022-08-05T15:27:52.067Z,39.79
2022-08-05T15:28:56.798Z,39.83
2022-08-05T15:30:01.441Z,39.90
2022-08-05T15:31:05.653Z,39.92
2022-08-05T15:32:10.031Z,39.99
2022-08-05T15:33:13.436Z,40.08
2022-08-05T15:34:36.799Z,40.17
2022-08-05T15:35:45.357Z,40.13
2022-08-05T15:36:49.449Z,40.12